Time;durP1;ratioP1;P1;durP2;ratioP2;P2;SDS_P1;SDS_P2;PMS_P1;PMS_P2;Temp;Humidity;BMP_temperature;BMP_pressure;BME280_temperature;BME280_humidity;BME280_pressure;Samples;Min_cycle;Max_cycle;Signal;HPM_P1;HPM_P2
2022/08/06 00:02:21;;;;;;;;;3.00;1.67;;;;;18.97;40.75;101861.22;5098743;27;45279;-61
2022/08/06 00:04:47;;;;;;;;;1.33;1.33;;;;;19.01;40.76;101852.84;5098454;27;46991;-61
2022/08/06 00:07:12;;;;;;;;;2.00;2.00;;;;;19.06;40.89;101863.28;5093211;27;45658;-61
2022/08/06 00:09:38;;;;;;;;;2.00;2.00;;;;;19.03;40.96;101866.19;5080179;27;45263;-60
2022/08/06 00:12:04;;;;;;;;;2.00;2.00;;;;;19.03;40.58;101860.81;5098586;27;45616;-61
2022/08/06 00:14:31;;;;;;;;;2.00;2.00;;;;;19.12;40.73;101873.59;5098062;27;46108;-60
2022/08/06 00:16:57;;;;;;;;;1.00;1.00;;;;;19.09;40.78;101868.44;5098031;27;45366;-60
2022/08/06 00:19:23;;;;;;;;;2.00;2.00;;;;;19.08;40.67;101864.88;5096242;27;45933;-62
2022/08/06 00:21:49;;;;;;;;;1.67;1.67;;;;;19.07;40.76;101875.78;5097647;27;45368;-60
2022/08/06 00:24:15;;;;;;;;;3.00;3.00;;;;;19.03;41.17;101876.97;5079955;27;46618;-62
2022/08/06 00:26:41;;;;;;;;;1.00;1.00;;;;;19.00;40.73;101869.09;5079493;27;45572;-61
2022/08/06 00:29:06;;;;;;;;;2.67;2.33;;;;;19.01;41.51;101868.13;5097856;27;45256;-62
2022/08/06 00:31:32;;;;;;;;;3.00;1.00;;;;;18.93;41.53;101875.91;5097043;27;45227;-61
2022/08/06 00:34:00;;;;;;;;;0.33;0.33;;;;;18.93;41.32;101879.47;5097351;27;46429;-61
2022/08/06 00:36:27;;;;;;;;;3.00;2.00;;;;;18.83;41.25;101870.28;5097798;27;45365;-61
2022/08/06 00:38:53;;;;;;;;;1.67;1.33;;;;;18.81;41.34;101867.72;5097746;27;45389;-61
2022/08/06 00:41:19;;;;;;;;;3.00;2.00;;;;;18.77;42.20;101866.22;5097700;27;45411;-61
2022/08/06 00:43:45;;;;;;;;;2.67;1.00;;;;;18.85;41.83;101873.72;5078622;27;45440;-62
2022/08/06 00:46:11;;;;;;;;;1.33;1.33;;;;;18.79;42.07;101880.44;5097713;27;45326;-61
2022/08/06 00:48:36;;;;;;;;;0.00;0.00;;;;;18.78;42.06;101883.25;5098010;27;45471;-63
2022/08/06 00:51:02;;;;;;;;;2.33;2.00;;;;;18.78;42.02;101872.47;5079748;27;45345;-62
2022/08/06 00:53:28;;;;;;;;;2.00;2.00;;;;;18.64;42.58;101859.94;5095920;27;46365;-61
2022/08/06 00:55:54;;;;;;;;;2.67;1.00;;;;;18.71;41.78;101877.41;5077945;27;45425;-61
2022/08/06 00:58:19;;;;;;;;;1.00;1.00;;;;;18.73;42.14;101886.22;5097200;27;45368;-61
2022/08/06 01:00:44;;;;;;;;;1.67;1.67;;;;;18.66;42.88;101876.88;5097237;27;45492;-61
2022/08/06 01:03:10;;;;;;;;;4.00;3.00;;;;;18.61;42.50;101887.06;5097200;27;45799;-61
2022/08/06 01:05:36;;;;;;;;;1.33;1.33;;;;;18.55;43.01;101892.88;5091713;27;45441;-64
2022/08/06 01:08:03;;;;;;;;;2.67;1.67;;;;;18.40;42.91;101889.41;5091970;27;45504;-61
2022/08/06 01:10:29;;;;;;;;;3.00;3.00;;;;;18.33;43.25;101887.22;5097362;27;45494;-63
2022/08/06 01:12:55;;;;;;;;;1.00;1.00;;;;;18.38;43.14;101890.50;5062076;27;46028;-60
2022/08/06 01:15:20;;;;;;;;;2.00;1.00;;;;;18.42;43.45;101892.00;5097431;27;45783;-61
2022/08/06 01:17:58;;;;;;;;;3.00;2.00;;;;;18.37;43.45;101881.56;5079411;27;45375;-61
2022/08/06 01:20:44;;;;;;;;;1.67;1.67;;;;;18.37;43.21;101889.63;5078385;27;45516;-62
2022/08/06 01:23:24;;;;;;;;;4.33;2.00;;;;;18.22;43.43;101901.41;5078428;27;46177;-60
2022/08/06 01:25:56;;;;;;;;;2.33;2.33;;;;;18.14;43.83;101901.94;5096674;27;45256;-61
2022/08/06 01:28:34;;;;;;;;;1.00;1.00;;;;;18.00;44.21;101888.56;5096737;27;45345;-61
2022/08/06 01:31:14;;;;;;;;;1.00;1.00;;;;;18.01;44.48;101903.72;5096370;27;45220;-60
2022/08/06 01:33:44;;;;;;;;;3.00;1.00;;;;;17.98;44.52;101898.56;5096082;27;45402;-60
2022/08/06 01:36:14;;;;;;;;;1.33;1.00;;;;;17.92;44.73;101904.34;5096758;27;45337;-61
2022/08/06 01:38:44;;;;;;;;;1.00;1.00;;;;;17.86;44.39;101891.28;5097476;27;45401;-61
2022/08/06 01:41:13;;;;;;;;;2.33;2.00;;;;;17.92;44.74;101904.34;5097378;27;45225;-62
2022/08/06 01:43:41;;;;;;;;;1.00;1.00;;;;;17.86;45.16;101894.00;5099444;27;45514;-61
2022/08/06 01:46:09;;;;;;;;;3.33;2.00;;;;;17.78;45.39;101896.31;5101166;27;45494;-61
2022/08/06 01:48:37;;;;;;;;;2.00;2.00;;;;;17.73;45.03;101887.69;5101359;27;45367;-60
2022/08/06 01:51:07;;;;;;;;;2.00;2.00;;;;;17.77;45.41;101895.44;5101564;27;45349;-61
2022/08/06 01:53:36;;;;;;;;;1.00;1.00;;;;;17.80;45.19;101902.44;5100794;27;45704;-61
2022/08/06 01:56:04;;;;;;;;;1.00;1.00;;;;;17.82;45.10;101895.13;5099316;27;45393;-61
2022/08/06 01:58:38;;;;;;;;;4.33;3.00;;;;;17.83;44.93;101896.84;5100183;27;45365;-60
2022/08/06 02:01:08;;;;;;;;;1.00;1.00;;;;;17.76;45.15;101898.25;5100172;27;45225;-59
2022/08/06 02:03:39;;;;;;;;;4.00;1.00;;;;;17.76;45.41;101892.84;5099693;27;45431;-61
2022/08/06 02:06:07;;;;;;;;;3.00;2.00;;;;;17.80;45.45;101889.00;5090349;27;45538;-61
2022/08/06 02:08:37;;;;;;;;;2.00;2.00;;;;;17.74;45.38;101897.47;5097387;27;45321;-60
2022/08/06 02:11:04;;;;;;;;;2.67;2.00;;;;;17.74;45.39;101895.66;5101141;27;45597;-61
2022/08/06 02:13:31;;;;;;;;;1.00;1.00;;;;;17.71;45.59;101889.59;5100784;27;46082;-60
2022/08/06 02:15:59;;;;;;;;;3.00;2.00;;;;;17.78;45.93;101896.31;5099814;27;45404;-61
2022/08/06 02:18:26;;;;;;;;;4.00;2.00;;;;;17.78;45.74;101891.78;5098296;27;45472;-60
2022/08/06 02:20:54;;;;;;;;;4.00;3.00;;;;;17.79;45.44;101898.91;5099701;27;45545;-60
2022/08/06 02:23:22;;;;;;;;;3.67;3.67;;;;;17.78;45.26;101893.63;5099375;27;45934;-61
2022/08/06 02:25:52;;;;;;;;;3.00;2.00;;;;;17.74;46.21;101906.41;5081351;27;45483;-60
2022/08/06 02:28:20;;;;;;;;;4.33;4.00;;;;;17.70;46.13;101891.41;5099468;27;45246;-61
2022/08/06 02:30:47;;;;;;;;;3.33;3.33;;;;;17.73;46.04;101893.06;5099097;27;45534;-61
2022/08/06 02:33:14;;;;;;;;;3.00;3.00;;;;;17.63;45.87;101882.00;5099776;27;46279;-60
2022/08/06 02:35:51;;;;;;;;;4.00;4.00;;;;;17.63;46.38;101890.06;5081479;27;45368;-60
2022/08/06 02:38:27;;;;;;;;;3.00;3.00;;;;;17.66;46.19;101903.31;5099746;27;45257;-60
2022/08/06 02:40:57;;;;;;;;;4.67;4.33;;;;;17.67;46.06;101894.28;5099938;27;45433;-61
2022/08/06 02:43:32;;;;;;;;;3.33;3.33;;;;;17.59;45.86;101889.41;5078769;27;46251;-60
2022/08/06 02:46:08;;;;;;;;;1.67;1.67;;;;;17.64;45.94;101898.03;5081638;27;45480;-62
2022/08/06 02:48:42;;;;;;;;;2.00;2.00;;;;;17.59;45.97;101900.19;5098971;27;45251;-61
2022/08/06 02:51:17;;;;;;;;;3.00;3.00;;;;;17.57;46.42;101903.91;5099291;27;45294;-61
2022/08/06 02:53:53;;;;;;;;;2.67;2.67;;;;;17.56;46.49;101897.66;5099177;27;45460;-62
2022/08/06 02:56:19;;;;;;;;;2.67;2.67;;;;;17.58;46.66;101890.38;5097606;27;45447;-61
2022/08/06 02:58:47;;;;;;;;;4.00;2.33;;;;;17.60;46.51;101891.13;5098620;27;45163;-61
2022/08/06 03:01:18;;;;;;;;;2.67;2.00;;;;;17.63;46.32;101898.13;5099652;27;45197;-60
2022/08/06 03:03:46;;;;;;;;;2.67;2.00;;;;;17.60;46.04;101884.91;5098323;27;45343;-60
2022/08/06 03:06:14;;;;;;;;;3.67;2.00;;;;;17.56;46.04;101884.22;5087332;27;45259;-61
2022/08/06 03:08:41;;;;;;;;;4.33;1.67;;;;;17.58;46.26;101893.06;5094285;27;45592;-62
2022/08/06 03:11:09;;;;;;;;;2.67;2.67;;;;;17.57;46.72;101887.75;5080914;27;45761;-60
2022/08/06 03:13:38;;;;;;;;;3.00;3.00;;;;;17.54;46.53;101883.44;5098768;27;46118;-60
2022/08/06 03:16:05;;;;;;;;;3.00;3.00;;;;;17.53;46.96;101887.09;5080529;27;45283;-60
2022/08/06 03:18:33;;;;;;;;;3.00;3.00;;;;;17.47;46.93;101870.50;5098759;27;45387;-61
2022/08/06 03:21:01;;;;;;;;;3.00;2.00;;;;;17.49;46.81;101879.34;5098564;27;45718;-61
2022/08/06 03:23:29;;;;;;;;;2.00;2.00;;;;;17.46;47.07;101893.88;5098829;27;45349;-61
2022/08/06 03:25:56;;;;;;;;;2.00;2.00;;;;;17.42;46.84;101869.94;5098521;27;45393;-62
2022/08/06 03:28:23;;;;;;;;;3.00;3.00;;;;;17.39;47.18;101879.94;5099796;27;45279;-61
2022/08/06 03:30:50;;;;;;;;;3.67;2.00;;;;;17.37;47.47;101886.38;5099889;27;45511;-61
2022/08/06 03:33:18;;;;;;;;;1.00;1.00;;;;;17.36;47.31;101888.19;5099641;27;45500;-61
2022/08/06 03:35:45;;;;;;;;;2.00;2.00;;;;;17.27;47.20;101891.47;5099087;27;45298;-63
2022/08/06 03:38:12;;;;;;;;;3.00;2.00;;;;;17.22;47.33;101888.22;5098786;27;45366;-61
2022/08/06 03:40:41;;;;;;;;;2.00;2.00;;;;;17.15;47.56;101886.00;5098436;27;45614;-61
2022/08/06 03:43:08;;;;;;;;;1.67;1.67;;;;;17.13;47.39;101888.78;5097512;27;46016;-60
2022/08/06 03:45:38;;;;;;;;;5.33;3.00;;;;;17.15;47.49;101886.88;5097007;27;45566;-61
2022/08/06 03:48:05;;;;;;;;;4.00;1.00;;;;;17.10;47.69;101887.16;5098040;27;45455;-61
2022/08/06 03:50:41;;;;;;;;;2.00;2.00;;;;;16.96;47.67;101881.78;5098309;27;45177;-60
2022/08/06 03:53:12;;;;;;;;;2.00;2.00;;;;;16.95;48.12;101885.44;5079848;27;47119;-62
2022/08/06 03:55:39;;;;;;;;;2.00;1.00;;;;;16.90;48.09;101884.84;5096373;27;45341;-60
2022/08/06 03:58:09;;;;;;;;;2.00;2.00;;;;;16.93;48.06;101887.38;5098313;27;45259;-60
2022/08/06 04:00:46;;;;;;;;;2.00;2.00;;;;;16.93;47.91;101892.75;5098341;27;45441;-61
2022/08/06 04:03:13;;;;;;;;;3.67;2.00;;;;;16.95;48.13;101887.25;5098173;27;45721;-62
2022/08/06 04:05:41;;;;;;;;;2.00;2.00;;;;;16.83;48.12;101875.44;5091336;27;45350;-62
2022/08/06 04:08:09;;;;;;;;;1.00;1.00;;;;;16.86;48.16;101890.50;5090141;27;45456;-61
2022/08/06 04:10:40;;;;;;;;;2.00;2.00;;;;;16.84;48.32;101897.81;5097918;27;45306;-61
2022/08/06 04:13:08;;;;;;;;;2.00;2.00;;;;;16.82;48.35;101900.59;5097919;27;45279;-60
2022/08/06 04:15:36;;;;;;;;;4.33;1.00;;;;;16.83;48.42;101896.94;5098068;27;45399;-61
2022/08/06 04:18:04;;;;;;;;;2.00;2.00;;;;;16.83;48.71;101896.09;5098141;27;45432;-62
2022/08/06 04:20:32;;;;;;;;;2.67;2.67;;;;;16.78;48.45;101896.34;5097716;27;45399;-60
2022/08/06 04:22:57;;;;;;;;;1.00;1.00;;;;;16.77;48.81;101897.31;5098023;27;46132;-61
2022/08/06 04:25:26;;;;;;;;;1.00;1.00;;;;;16.71;48.38;101900.38;5097663;27;45258;-62
2022/08/06 04:27:53;;;;;;;;;4.00;3.00;;;;;16.65;48.79;101903.38;5097191;27;45667;-61
2022/08/06 04:30:18;;;;;;;;;3.00;3.00;;;;;16.65;49.01;101908.75;5098494;27;45561;-59
2022/08/06 04:32:45;;;;;;;;;2.00;2.00;;;;;16.65;48.50;101916.81;5079609;27;45485;-61
2022/08/06 04:35:12;;;;;;;;;2.00;2.00;;;;;16.65;48.57;101914.13;5097627;27;45285;-61
2022/08/06 04:37:38;;;;;;;;;2.33;2.33;;;;;16.53;48.81;101903.16;5095551;27;45379;-61
2022/08/06 04:40:06;;;;;;;;;1.00;1.00;;;;;16.57;48.83;101916.44;5097136;27;45362;-61
2022/08/06 04:42:32;;;;;;;;;3.33;2.00;;;;;16.51;48.94;101929.25;5096049;27;46484;-62
2022/08/06 04:44:57;;;;;;;;;2.00;2.00;;;;;16.49;48.99;101924.94;5097414;27;45362;-62
2022/08/06 04:47:23;;;;;;;;;2.00;2.00;;;;;16.48;49.10;101926.75;5097012;27;45305;-60
2022/08/06 04:49:49;;;;;;;;;3.00;3.00;;;;;16.42;49.22;101921.78;5097515;27;45689;-62
2022/08/06 04:52:25;;;;;;;;;0.33;0.33;;;;;16.41;49.32;101917.34;5079010;27;45778;-60
2022/08/06 04:54:51;;;;;;;;;3.00;3.00;;;;;16.46;49.21;101942.09;5079422;27;45259;-61
2022/08/06 04:57:16;;;;;;;;;3.33;2.00;;;;;16.38;49.18;101939.00;5096186;27;45265;-61
2022/08/06 04:59:42;;;;;;;;;3.00;2.00;;;;;16.39;48.85;101947.91;5078674;27;45253;-64
2022/08/06 05:02:07;;;;;;;;;2.00;2.00;;;;;16.40;49.73;101953.19;5097521;27;47323;-62
2022/08/06 05:04:34;;;;;;;;;2.00;2.00;;;;;16.42;49.35;101940.56;5097849;27;45293;-62
2022/08/06 05:07:15;;;;;;;;;2.00;2.00;;;;;16.40;49.18;101953.19;5076675;27;45285;-62
2022/08/06 05:09:40;;;;;;;;;2.50;1.00;;;;;16.40;49.81;101952.31;5097037;27;45247;-62
2022/08/06 05:12:19;;;;;;;;;2.00;2.00;;;;;16.42;49.17;101945.94;5096776;27;46034;-59
2022/08/06 05:15:02;;;;;;;;;2.67;2.67;;;;;16.38;49.38;101956.94;5096507;27;45228;-61
2022/08/06 05:17:41;;;;;;;;;2.00;1.00;;;;;16.36;49.55;101959.72;5095814;27;45213;-61
2022/08/06 05:20:17;;;;;;;;;3.00;2.00;;;;;16.32;49.63;101950.09;5097465;27;45431;-63
2022/08/06 05:22:46;;;;;;;;;2.00;2.00;;;;;16.24;49.59;101941.63;5096994;27;46082;-64
2022/08/06 05:25:12;;;;;;;;;1.33;1.33;;;;;16.31;49.16;101969.00;5096129;27;45318;-61
2022/08/06 05:27:40;;;;;;;;;3.00;1.00;;;;;16.28;49.24;101963.81;5096890;27;45260;-60
2022/08/06 05:30:06;;;;;;;;;2.33;2.00;;;;;16.22;49.29;101965.00;5096731;27;45452;-62
2022/08/06 05:32:49;;;;;;;;;2.00;2.00;;;;;16.23;49.87;101966.75;5096490;27;46387;-60
2022/08/06 05:35:15;;;;;;;;;6.00;2.00;;;;;16.28;49.54;101970.03;5096339;27;45216;-61
2022/08/06 05:37:40;;;;;;;;;4.67;4.67;;;;;16.34;49.30;101972.34;5096502;27;45319;-61
2022/08/06 05:40:07;;;;;;;;;2.00;2.00;;;;;16.31;48.93;101969.00;5096751;27;45368;-62
2022/08/06 05:42:33;;;;;;;;;2.67;2.67;;;;;16.33;49.19;101977.81;5096309;27;45461;-61
2022/08/06 05:44:59;;;;;;;;;2.00;2.00;;;;;16.30;48.88;101973.50;5096569;27;45426;-60
2022/08/06 05:47:28;;;;;;;;;2.00;2.00;;;;;16.25;49.19;101964.84;5078088;27;45368;-62
2022/08/06 05:50:18;;;;;;;;;4.00;2.00;;;;;16.25;49.13;101974.69;5097132;27;45287;-62
2022/08/06 05:53:01;;;;;;;;;3.00;3.00;;;;;16.18;49.23;101975.06;5096468;27;45385;-61
2022/08/06 05:55:37;;;;;;;;;2.33;2.33;;;;;16.14;49.08;101962.75;5096429;27;45377;-62
2022/08/06 05:58:20;;;;;;;;;2.00;2.00;;;;;16.13;49.11;101962.84;5078273;27;45382;-61
2022/08/06 06:00:46;;;;;;;;;1.00;1.00;;;;;16.19;49.11;101981.31;5096311;27;45343;-61
2022/08/06 06:03:15;;;;;;;;;2.00;1.00;;;;;16.19;48.86;101986.69;5078002;27;47676;-60
2022/08/06 06:05:42;;;;;;;;;1.67;1.67;;;;;16.26;48.79;101979.97;5089933;27;45231;-61
2022/08/06 06:08:08;;;;;;;;;2.00;2.00;;;;;16.30;49.09;101988.75;5074977;28;45333;-61
2022/08/06 06:10:35;;;;;;;;;3.00;2.00;;;;;16.35;48.85;101981.28;5076082;28;45343;-62
2022/08/06 06:13:02;;;;;;;;;1.67;1.67;;;;;16.37;48.78;101993.66;5095003;27;46382;-61
2022/08/06 06:15:28;;;;;;;;;1.33;1.00;;;;;16.37;48.76;101984.72;5096148;27;45399;-61
2022/08/06 06:18:24;;;;;;;;;4.00;2.33;;;;;16.36;48.46;101978.50;5079560;27;45358;-60
2022/08/06 06:21:03;;;;;;;;;2.33;1.00;;;;;16.34;48.40;101976.88;5098271;27;45279;-61
2022/08/06 06:23:32;;;;;;;;;3.00;2.00;;;;;16.38;48.26;101984.63;5078572;27;47160;-63
2022/08/06 06:26:27;;;;;;;;;2.33;2.00;;;;;16.41;48.09;101980.94;5097223;27;45363;-60
2022/08/06 06:29:04;;;;;;;;;0.33;0.33;;;;;16.41;48.27;101980.94;5097857;27;45781;-61
2022/08/06 06:31:57;;;;;;;;;1.00;1.00;;;;;16.49;48.24;101984.03;5099662;27;45431;-61
2022/08/06 06:35:04;;;;;;;;;1.00;1.00;;;;;16.52;48.05;101984.69;5099331;27;46297;-60
2022/08/06 06:37:50;;;;;;;;;1.00;1.00;;;;;16.53;47.71;101986.41;5072246;28;45331;-61
2022/08/06 06:41:00;;;;;;;;;1.00;1.00;;;;;16.58;47.59;101983.50;5078673;27;45223;-60
2022/08/06 06:43:47;;;;;;;;;2.00;1.00;;;;;16.62;47.42;101986.84;5077437;28;45362;-60
2022/08/06 06:46:22;;;;;;;;;2.67;1.00;;;;;16.55;47.11;101993.56;5094735;27;46510;-61
2022/08/06 06:48:51;;;;;;;;;2.00;2.00;;;;;16.57;47.23;101994.31;5092529;27;45251;-61
2022/08/06 06:51:23;;;;;;;;;1.00;1.00;;;;;16.63;47.02;101993.94;5099367;27;45266;-60
2022/08/06 06:53:51;;;;;;;;;2.33;2.00;;;;;16.69;47.33;101991.81;5099716;27;45531;-60
2022/08/06 06:56:21;;;;;;;;;2.00;2.00;;;;;16.74;46.52;101989.69;5099552;27;46386;-60
2022/08/06 06:58:55;;;;;;;;;2.00;1.00;;;;;16.74;46.09;101981.66;5080760;27;45415;-61
2022/08/06 07:01:22;;;;;;;;;0.00;0.00;;;;;16.83;45.62;101985.63;5080257;27;45358;-61
2022/08/06 07:03:49;;;;;;;;;2.00;1.00;;;;;16.88;45.86;101996.94;5081184;27;45528;-62
2022/08/06 07:06:16;;;;;;;;;0.00;0.00;;;;;16.95;45.55;101992.06;5088000;27;46228;-60
2022/08/06 07:08:47;;;;;;;;;1.00;1.00;;;;;17.00;45.05;101995.34;5085374;27;45559;-62
2022/08/06 07:11:22;;;;;;;;;2.00;1.00;;;;;17.04;45.00;101992.34;5080489;27;45635;-61
2022/08/06 07:13:50;;;;;;;;;3.00;1.00;;;;;17.07;44.67;101994.88;5079421;28;45380;-63
2022/08/06 07:16:21;;;;;;;;;0.33;0.00;;;;;17.15;44.97;102001.59;5078836;28;45552;-63
2022/08/06 07:18:47;;;;;;;;;0.00;0.00;;;;;17.21;44.52;102009.31;5084583;27;45477;-62
2022/08/06 07:21:18;;;;;;;;;1.00;1.00;;;;;17.26;44.65;102008.03;5080835;27;45364;-62
2022/08/06 07:23:46;;;;;;;;;0.67;0.67;;;;;17.40;44.68;102010.75;5099283;27;45193;-64
2022/08/06 07:26:17;;;;;;;;;1.00;1.00;;;;;17.49;44.31;102017.38;5098595;27;45424;-62
2022/08/06 07:28:44;;;;;;;;;2.00;1.00;;;;;17.58;44.29;102008.75;5098508;27;45278;-61
2022/08/06 07:31:11;;;;;;;;;1.00;1.00;;;;;17.67;43.72;102012.66;5097725;27;45361;-61
2022/08/06 07:33:39;;;;;;;;;1.00;1.00;;;;;17.76;43.14;102011.25;5098722;27;45428;-61
2022/08/06 07:36:06;;;;;;;;;0.33;0.33;;;;;17.76;43.09;102014.81;5098552;27;46209;-64
2022/08/06 07:38:33;;;;;;;;;0.67;0.67;;;;;17.86;43.30;102015.09;5098590;27;45613;-62
2022/08/06 07:41:03;;;;;;;;;0.00;0.00;;;;;17.90;42.69;102008.53;5098417;27;45372;-62
2022/08/06 07:43:34;;;;;;;;;0.00;0.00;;;;;17.92;41.54;102003.91;5096960;27;45432;-60
2022/08/06 07:46:02;;;;;;;;;2.00;0.00;;;;;17.99;41.78;101997.19;5098669;27;46295;-62
2022/08/06 07:48:35;;;;;;;;;0.00;0.00;;;;;18.07;41.04;102004.75;5098499;27;45476;-62
2022/08/06 07:51:02;;;;;;;;;1.00;1.00;;;;;18.15;41.23;102014.06;5098754;27;45319;-62
2022/08/06 07:53:30;;;;;;;;;0.33;0.33;;;;;18.25;40.86;102008.94;5098940;27;45449;-62
2022/08/06 07:55:56;;;;;;;;;1.00;0.00;;;;;18.27;40.73;102002.50;5097127;27;45266;-61
2022/08/06 07:58:23;;;;;;;;;0.00;0.00;;;;;18.40;40.28;102013.31;5096731;27;45445;-62
2022/08/06 08:00:48;;;;;;;;;0.67;0.67;;;;;18.47;39.46;102013.75;5098419;27;45238;-62
2022/08/06 08:06:23;;;;;;;;;1.00;0.00;;;;;18.58;38.72;102000.44;5089350;27;45320;-61
2022/08/06 08:09:10;;;;;;;;;0.00;0.00;;;;;18.75;38.34;102012.78;5096497;27;45479;-62
2022/08/06 08:11:40;;;;;;;;;3.00;0.00;;;;;18.80;38.64;102022.31;5098679;27;45899;-61
2022/08/06 08:14:07;;;;;;;;;0.00;0.00;;;;;18.89;38.05;102012.75;5098506;27;45524;-62
2022/08/06 08:16:33;;;;;;;;;0.67;0.67;;;;;18.90;37.64;102002.81;5098017;27;46048;-61
2022/08/06 08:18:59;;;;;;;;;0.00;0.00;;;;;18.93;38.30;102010.69;5093015;27;45358;-61
2022/08/06 08:21:26;;;;;;;;;0.00;0.00;;;;;19.09;38.19;102019.44;5077412;28;45286;-62
2022/08/06 08:23:52;;;;;;;;;0.33;0.33;;;;;19.10;37.81;102013.94;5077438;28;45667;-62
2022/08/06 08:26:17;;;;;;;;;0.00;0.00;;;;;19.29;38.15;102023.47;5077076;28;46311;-61
2022/08/06 08:28:43;;;;;;;;;0.00;0.00;;;;;19.39;37.22;102029.91;5077124;28;45231;-62
2022/08/06 08:31:08;;;;;;;;;0.00;0.00;;;;;19.50;36.84;102011.13;5082086;27;45583;-61
2022/08/06 08:33:34;;;;;;;;;0.00;0.00;;;;;19.74;36.33;102016.66;5098283;27;45738;-62
2022/08/06 08:36:01;;;;;;;;;0.00;0.00;;;;;20.24;36.30;102020.19;5079676;27;47827;-62
2022/08/06 08:38:29;;;;;;;;;0.00;0.00;;;;;20.89;34.98;102006.28;5079564;27;45449;-61
2022/08/06 08:40:56;;;;;;;;;1.67;1.00;;;;;21.49;34.02;101999.78;5097652;27;45467;-61
2022/08/06 08:43:29;;;;;;;;;0.00;0.00;;;;;22.08;31.78;102007.63;5096432;27;45527;-62
2022/08/06 08:45:57;;;;;;;;;0.00;0.00;;;;;22.57;32.15;101996.28;5096892;27;45474;-62
2022/08/06 08:48:29;;;;;;;;;0.00;0.00;;;;;23.04;30.33;101993.22;5097234;27;45299;-61
2022/08/06 08:50:58;;;;;;;;;0.00;0.00;;;;;23.34;30.10;101984.25;5097514;27;45534;-60
2022/08/06 08:53:40;;;;;;;;;1.00;1.00;;;;;23.69;29.09;101971.13;5079441;27;45272;-62
2022/08/06 08:56:06;;;;;;;;;0.00;0.00;;;;;24.22;27.93;101979.00;5096501;27;45458;-62
2022/08/06 08:58:36;;;;;;;;;0.00;0.00;;;;;24.56;29.13;101986.78;5098054;27;45365;-61
2022/08/06 09:01:04;;;;;;;;;0.00;0.00;;;;;24.88;28.16;101970.16;5097826;27;45409;-62
2022/08/06 09:03:32;;;;;;;;;2.00;0.00;;;;;25.23;27.47;101978.53;5097766;27;45388;-63
2022/08/06 09:05:57;;;;;;;;;0.00;0.00;;;;;25.62;27.22;101980.28;5088481;27;46178;-66
2022/08/06 09:08:23;;;;;;;;;0.00;0.00;;;;;25.80;27.18;101982.09;5071809;27;45367;-62
2022/08/06 09:10:49;;;;;;;;;0.00;0.00;;;;;25.93;26.08;101980.88;5096935;27;45268;-62
2022/08/06 09:13:14;;;;;;;;;0.00;0.00;;;;;26.24;26.50;101981.38;5079287;27;45569;-63
2022/08/06 09:15:40;;;;;;;;;0.00;0.00;;;;;26.34;25.67;101982.19;5078948;27;45669;-62
2022/08/06 09:18:06;;;;;;;;;1.00;1.00;;;;;26.49;25.63;101983.38;5097682;27;45276;-60
2022/08/06 09:20:33;;;;;;;;;1.00;0.00;;;;;26.73;24.03;101986.31;5096674;27;46016;-62
2022/08/06 09:22:58;;;;;;;;;0.00;0.00;;;;;27.06;23.91;101993.94;5097370;27;45480;-63
2022/08/06 09:25:37;;;;;;;;;0.00;0.00;;;;;27.25;25.88;101991.00;5096738;27;45335;-60
2022/08/06 09:28:03;;;;;;;;;0.60;0.00;;;;;27.63;25.08;101996.00;5097286;27;45250;-62
2022/08/06 09:30:30;;;;;;;;;0.40;0.40;;;;;27.48;23.04;101991.31;5078581;27;45181;-64
2022/08/06 09:32:56;;;;;;;;;0.00;0.00;;;;;27.66;24.10;101994.84;5096347;27;45200;-64
2022/08/06 09:35:28;;;;;;;;;0.00;0.00;;;;;27.79;24.02;101999.84;5096931;27;47190;-63
2022/08/06 09:38:04;;;;;;;;;0.60;0.60;;;;;28.00;23.89;101997.56;5096768;27;45201;-63
2022/08/06 09:40:29;;;;;;;;;0.00;0.00;;;;;27.92;22.64;101987.44;5097099;27;45365;-61
2022/08/06 09:42:55;;;;;;;;;0.00;0.00;;;;;27.84;23.75;101992.84;5096108;27;45508;-61
2022/08/06 09:45:23;;;;;;;;;0.50;0.50;;;;;28.24;23.68;101998.63;5092484;27;48003;-64
2022/08/06 09:48:06;;;;;;;;;1.00;1.00;;;;;28.38;22.04;102006.22;5096384;27;45481;-63
2022/08/06 09:50:36;;;;;;;;;1.00;1.00;;;;;28.59;23.24;101990.16;5096847;27;45385;-63
2022/08/06 09:53:03;;;;;;;;;1.00;0.00;;;;;28.75;21.73;101992.91;5095266;27;45207;-62
2022/08/06 09:55:30;;;;;;;;;0.00;0.00;;;;;29.06;23.14;101986.78;5094530;27;46501;-60
2022/08/06 09:57:56;;;;;;;;;0.60;0.60;;;;;29.11;21.41;101981.63;5077091;27;45213;-64
2022/08/06 10:00:27;;;;;;;;;1.80;0.00;;;;;29.22;20.58;101999.56;5096167;27;45466;-62
2022/08/06 10:03:01;;;;;;;;;0.60;0.60;;;;;29.07;21.08;101980.25;5096125;27;45483;-62
2022/08/06 10:05:27;;;;;;;;;0.00;0.00;;;;;29.12;21.20;101988.81;5077695;28;46301;-63
2022/08/06 10:08:11;;;;;;;;;2.20;1.00;;;;;29.11;21.79;101986.25;5088436;27;45397;-63
2022/08/06 10:10:39;;;;;;;;;0.00;0.00;;;;;29.05;21.13;101988.66;5100043;27;45259;-61
2022/08/06 10:13:15;;;;;;;;;0.00;0.00;;;;;28.96;21.44;101989.69;5100139;27;45254;-64
2022/08/06 10:15:41;;;;;;;;;0.00;0.00;;;;;28.68;21.84;101977.34;5099491;27;46237;-65
2022/08/06 10:18:06;;;;;;;;;1.00;0.00;;;;;28.72;21.31;101987.78;5100199;27;45333;-65
2022/08/06 10:20:32;;;;;;;;;0.00;0.00;;;;;28.72;21.84;101970.50;5099342;27;45378;-64
2022/08/06 10:22:57;;;;;;;;;2.00;0.75;;;;;28.36;21.29;101981.75;5100583;27;45475;-61
2022/08/06 10:25:24;;;;;;;;;2.75;1.25;;;;;28.20;20.94;101987.16;5100708;27;45482;-61
2022/08/06 10:27:54;;;;;;;;;0.00;0.00;;;;;28.00;21.83;101983.03;5101026;27;45417;-62
2022/08/06 10:30:20;;;;;;;;;0.00;0.00;;;;;27.44;21.77;101974.38;5100801;27;45279;-61
2022/08/06 10:32:51;;;;;;;;;0.20;0.20;;;;;27.19;22.93;101991.63;5080528;27;45544;-62
2022/08/06 10:35:20;;;;;;;;;1.00;0.80;;;;;26.80;23.13;101978.34;5099240;27;46322;-62
2022/08/06 10:37:51;;;;;;;;;0.00;0.00;;;;;26.46;23.98;101978.25;5081293;27;45352;-63
2022/08/06 10:40:19;;;;;;;;;1.00;1.00;;;;;26.10;23.80;101967.25;5099662;27;45348;-64
2022/08/06 10:42:45;;;;;;;;;1.00;1.00;;;;;26.03;24.36;101973.47;5099002;27;45358;-61
2022/08/06 10:45:11;;;;;;;;;0.40;0.40;;;;;25.83;24.16;101972.75;5081189;27;48125;-64
2022/08/06 10:47:39;;;;;;;;;0.80;0.80;;;;;25.63;24.10;101974.66;5099115;27;45442;-62
2022/08/06 10:50:05;;;;;;;;;0.00;0.00;;;;;25.37;24.40;101965.47;5099937;27;45268;-63
2022/08/06 10:52:31;;;;;;;;;2.00;2.00;;;;;25.09;24.71;101975.44;5099647;27;45651;-64
2022/08/06 10:54:59;;;;;;;;;1.00;1.00;;;;;24.98;25.32;101962.81;5098310;27;45627;-61
2022/08/06 10:57:26;;;;;;;;;0.60;0.60;;;;;24.98;25.27;101970.97;5099109;27;45365;-62
2022/08/06 10:59:52;;;;;;;;;1.00;1.00;;;;;24.87;25.25;101962.97;5099335;27;45467;-63
2022/08/06 11:02:40;;;;;;;;;0.00;0.00;;;;;24.73;25.85;101963.44;5099195;27;45496;-62
2022/08/06 11:05:13;;;;;;;;;1.00;1.00;;;;;24.63;26.07;101952.56;5097466;27;46317;-62
2022/08/06 11:07:52;;;;;;;;;2.20;1.00;;;;;24.64;25.63;101947.00;5088523;27;45422;-62
2022/08/06 11:10:36;;;;;;;;;2.00;2.00;;;;;24.63;25.58;101942.56;5098952;27;45405;-63
2022/08/06 11:13:32;;;;;;;;;1.75;1.00;;;;;24.61;26.09;101946.41;5098839;27;45169;-62
2022/08/06 11:15:58;;;;;;;;;2.00;1.50;;;;;24.60;25.62;101937.38;5096799;27;45394;-62
2022/08/06 11:18:23;;;;;;;;;1.25;1.25;;;;;24.70;25.26;101942.81;5098765;27;45348;-60
2022/08/06 11:20:52;;;;;;;;;0.00;0.00;;;;;24.75;25.90;101934.25;5097890;27;45545;-61
2022/08/06 11:23:17;;;;;;;;;2.50;1.25;;;;;24.83;26.19;101937.06;5099213;27;45671;-61
2022/08/06 11:25:51;;;;;;;;;2.00;1.00;;;;;24.86;25.26;101931.31;5098092;27;45333;-62
2022/08/06 11:28:40;;;;;;;;;2.60;2.00;;;;;24.85;25.24;101918.72;5097669;27;45386;-62
2022/08/06 11:31:07;;;;;;;;;2.00;2.00;;;;;24.71;25.31;101934.50;5098447;27;45465;-63
2022/08/06 11:33:32;;;;;;;;;3.50;1.00;;;;;24.78;25.28;101931.22;5098893;27;45290;-62
2022/08/06 11:36:19;;;;;;;;;0.00;0.00;;;;;24.86;25.43;101928.59;5098502;27;45307;-62
2022/08/06 11:38:48;;;;;;;;;1.00;1.00;;;;;24.88;25.59;101918.47;5038249;27;45740;-61
2022/08/06 11:41:21;;;;;;;;;1.20;1.20;;;;;25.02;24.72;101915.31;5098638;27;45301;-62